createdAt,value
2023-01-29T00:00:10.601Z,1.80
2023-01-29T00:02:39.996Z,1.77
2023-01-29T00:05:26.005Z,1.70
2023-01-29T00:07:55.097Z,1.77
2023-01-29T00:10:21.991Z,1.87
2023-01-29T00:12:48.765Z,1.83
2023-01-29T00:15:15.524Z,1.76
2023-01-29T00:17:42.433Z,1.89
2023-01-29T00:20:09.843Z,1.97
2023-01-29T00:22:36.849Z,2.02
2023-01-29T00:25:03.780Z,2.01
2023-01-29T00:27:30.588Z,2.09
2023-01-29T00:30:09.443Z,2.18
2023-01-29T00:32:36.458Z,2.26
2023-01-29T00:35:03.780Z,2.31
2023-01-29T00:37:30.972Z,2.31
2023-01-29T00:39:57.844Z,2.15
2023-01-29T00:42:43.711Z,2.04
2023-01-29T00:45:12.133Z,2.07
2023-01-29T00:47:38.876Z,2.13
2023-01-29T00:50:10.817Z,2.05
2023-01-29T00:52:38.541Z,2.08
2023-01-29T00:55:06.484Z,2.15
2023-01-29T00:57:35.617Z,2.05
2023-01-29T01:00:04.340Z,1.91
2023-01-29T01:02:49.459Z,1.96
2023-01-29T01:05:18.374Z,1.89
2023-01-29T01:07:53.330Z,1.79
2023-01-29T01:10:32.358Z,1.85
2023-01-29T01:13:05.187Z,1.90
2023-01-29T01:15:35.256Z,1.97
2023-01-29T01:18:04.474Z,2.04
2023-01-29T01:20:34.394Z,2.09
2023-01-29T01:23:01.183Z,2.12
2023-01-29T01:25:28.116Z,1.86
2023-01-29T01:27:57.177Z,1.65
2023-01-29T01:30:25.194Z,1.62
2023-01-29T01:32:52.655Z,1.66
2023-01-29T01:35:19.560Z,1.60
2023-01-29T01:37:46.435Z,1.53
2023-01-29T01:40:19.746Z,1.49
2023-01-29T01:42:50.816Z,1.58
2023-01-29T01:45:35.665Z,1.37
2023-01-29T01:48:25.063Z,1.26
2023-01-29T01:51:01.548Z,1.29
2023-01-29T01:53:38.594Z,1.30
2023-01-29T01:56:09.438Z,1.43
2023-01-29T01:58:47.891Z,1.52
2023-01-29T02:01:15.361Z,1.53
2023-01-29T02:04:12.369Z,1.60
2023-01-29T02:06:59.461Z,1.72
2023-01-29T02:09:38.940Z,1.79
2023-01-29T02:12:11.182Z,1.75
2023-01-29T02:14:40.469Z,1.83
2023-01-29T02:17:09.884Z,1.83
2023-01-29T02:19:58.524Z,1.87
2023-01-29T02:22:56.375Z,1.62
2023-01-29T02:25:47.181Z,1.58
2023-01-29T02:28:28.087Z,1.46
2023-01-29T02:31:19.358Z,1.28
2023-01-29T02:33:59.723Z,1.38
2023-01-29T02:36:40.999Z,1.43
2023-01-29T02:39:32.539Z,1.28
2023-01-29T02:42:20.391Z,1.36
2023-01-29T02:45:04.382Z,1.50
2023-01-29T02:47:35.327Z,1.45
2023-01-29T02:50:13.122Z,1.28
2023-01-29T02:52:49.690Z,1.11
2023-01-29T02:55:36.743Z,1.11
2023-01-29T02:58:17.467Z,1.18
2023-01-29T03:00:46.965Z,1.25
2023-01-29T03:03:19.607Z,1.23
2023-01-29T03:05:58.880Z,1.11
2023-01-29T03:08:43.330Z,1.06
2023-01-29T03:11:15.585Z,1.11
2023-01-29T03:13:55.912Z,1.31
2023-01-29T03:16:28.164Z,1.33
2023-01-29T03:19:04.750Z,1.26
2023-01-29T03:21:55.230Z,1.33
2023-01-29T03:24:58.455Z,1.28
2023-01-29T03:27:50.353Z,1.20
2023-01-29T03:30:37.751Z,1.26
2023-01-29T03:33:26.472Z,1.43
2023-01-29T03:36:00.913Z,1.32
2023-01-29T03:38:29.793Z,1.26
2023-01-29T03:41:06.606Z,1.22
2023-01-29T03:43:33.495Z,1.22
2023-01-29T03:46:08.447Z,1.31
2023-01-29T03:48:57.173Z,1.44
2023-01-29T03:51:23.893Z,1.41
2023-01-29T03:54:09.883Z,1.39
2023-01-29T03:56:37.608Z,1.47
2023-01-29T03:59:28.499Z,1.36
2023-01-29T04:02:22.034Z,1.35
2023-01-29T04:04:52.006Z,1.14
2023-01-29T04:07:24.659Z,1.02
2023-01-29T04:10:06.063Z,1.24
2023-01-29T04:12:40.361Z,1.23
2023-01-29T04:15:11.213Z,1.26
2023-01-29T04:17:42.884Z,1.32
2023-01-29T04:20:16.844Z,1.37
2023-01-29T04:22:51.954Z,1.16
2023-01-29T04:25:32.362Z,0.90
2023-01-29T04:28:17.801Z,0.94
2023-01-29T04:31:02.979Z,0.74
2023-01-29T04:33:49.076Z,0.78
2023-01-29T04:36:28.206Z,0.62
2023-01-29T04:39:06.047Z,0.51
2023-01-29T04:42:09.736Z,0.53
2023-01-29T04:44:49.868Z,0.59
2023-01-29T04:47:38.309Z,0.63
2023-01-29T04:50:33.898Z,0.75
2023-01-29T04:53:05.673Z,0.82
2023-01-29T04:55:51.536Z,0.84
2023-01-29T04:58:42.052Z,0.74
2023-01-29T05:01:13.465Z,0.80
2023-01-29T05:03:44.804Z,0.87
2023-01-29T05:06:12.662Z,1.00
2023-01-29T05:08:41.232Z,1.02
2023-01-29T05:11:08.363Z,1.02
2023-01-29T05:13:39.566Z,1.02
2023-01-29T05:16:28.285Z,1.06
2023-01-29T05:18:55.485Z,0.90
2023-01-29T05:21:23.404Z,0.73
2023-01-29T05:24:16.210Z,0.81
2023-01-29T05:27:05.167Z,0.94
2023-01-29T05:29:31.981Z,1.07
2023-01-29T05:31:58.904Z,1.14
2023-01-29T05:34:26.119Z,1.11
2023-01-29T05:36:53.114Z,1.17
2023-01-29T05:39:19.982Z,1.12
2023-01-29T05:41:46.792Z,1.08
2023-01-29T05:44:13.792Z,1.08
2023-01-29T05:46:40.610Z,1.06
2023-01-29T05:49:07.451Z,0.99
2023-01-29T05:51:34.198Z,0.90
2023-01-29T05:54:01.252Z,0.90
2023-01-29T05:56:28.023Z,0.65
2023-01-29T05:58:55.956Z,0.44
2023-01-29T06:01:26.179Z,0.52
2023-01-29T06:03:52.985Z,0.57
2023-01-29T06:06:19.765Z,0.52
2023-01-29T06:08:46.889Z,0.41
2023-01-29T06:11:15.187Z,0.49
2023-01-29T06:13:42.282Z,0.49
2023-01-29T06:16:10.188Z,0.62
2023-01-29T06:18:37.669Z,0.61
2023-01-29T06:21:06.559Z,0.43
2023-01-29T06:23:33.401Z,0.45
2023-01-29T06:26:05.457Z,0.50
2023-01-29T06:28:32.376Z,0.49
2023-01-29T06:31:12.008Z,0.44
2023-01-29T06:33:49.986Z,0.35
2023-01-29T06:36:16.695Z,0.47
2023-01-29T06:38:43.369Z,0.60
2023-01-29T06:41:12.097Z,0.44
2023-01-29T06:43:39.446Z,0.45
2023-01-29T06:46:08.477Z,0.40
2023-01-29T06:48:35.655Z,0.50
2023-01-29T06:51:07.589Z,0.55
2023-01-29T06:53:35.814Z,0.64
2023-01-29T06:56:02.947Z,0.81
2023-01-29T06:58:29.748Z,0.90
2023-01-29T07:01:04.599Z,0.99
2023-01-29T07:03:31.454Z,1.01
2023-01-29T07:05:58.270Z,1.01
2023-01-29T07:08:25.062Z,1.07
2023-01-29T07:10:51.766Z,1.17
2023-01-29T07:13:18.552Z,1.24
2023-01-29T07:15:45.252Z,1.29
2023-01-29T07:18:12.655Z,1.27
2023-01-29T07:20:40.793Z,1.19
2023-01-29T07:23:11.571Z,1.14
2023-01-29T07:25:39.586Z,1.14
2023-01-29T07:28:12.672Z,1.19
2023-01-29T07:30:39.644Z,1.31
2023-01-29T07:33:08.675Z,1.52
2023-01-29T07:35:40.601Z,1.56
2023-01-29T07:38:09.217Z,1.63
2023-01-29T07:40:36.497Z,1.75
2023-01-29T07:43:06.013Z,1.95
2023-01-29T07:45:35.689Z,2.11
2023-01-29T07:48:04.945Z,2.21
2023-01-29T07:50:33.067Z,2.23
2023-01-29T07:53:00.323Z,2.28
2023-01-29T07:55:27.558Z,2.36
2023-01-29T07:58:04.259Z,2.43
2023-01-29T08:00:32.505Z,2.47
2023-01-29T08:03:07.989Z,2.57
2023-01-29T08:05:34.908Z,2.67
2023-01-29T08:08:07.002Z,2.77
2023-01-29T08:10:39.431Z,2.83
2023-01-29T08:13:07.366Z,2.88
2023-01-29T08:15:36.067Z,2.98
2023-01-29T08:18:05.174Z,3.11
2023-01-29T08:20:32.179Z,3.23
2023-01-29T08:23:08.567Z,3.34
2023-01-29T08:25:44.314Z,3.41
2023-01-29T08:28:12.476Z,3.55
2023-01-29T08:30:39.603Z,3.77
2023-01-29T08:33:06.911Z,3.86
2023-01-29T08:35:48.762Z,3.93
2023-01-29T08:38:15.893Z,4.03
2023-01-29T08:40:42.915Z,4.09
2023-01-29T08:43:11.509Z,4.13
2023-01-29T08:45:43.064Z,4.19
2023-01-29T08:48:10.929Z,4.32
2023-01-29T08:50:38.226Z,4.41
2023-01-29T08:53:10.210Z,4.50
2023-01-29T08:55:40.925Z,4.63
2023-01-29T08:58:08.995Z,4.87
2023-01-29T09:00:36.181Z,5.06
2023-01-29T09:03:03.936Z,5.13
2023-01-29T09:05:34.312Z,5.26
2023-01-29T09:08:01.085Z,5.27
2023-01-29T09:10:28.076Z,5.47
2023-01-29T09:12:54.958Z,5.49
2023-01-29T09:15:22.339Z,5.59
2023-01-29T09:17:51.920Z,5.59
2023-01-29T09:20:22.268Z,5.62
2023-01-29T09:22:50.781Z,5.76
2023-01-29T09:25:18.017Z,5.95
2023-01-29T09:27:45.131Z,5.96
2023-01-29T09:30:12.796Z,6.14
2023-01-29T09:32:55.246Z,6.34
2023-01-29T09:35:23.706Z,6.35
2023-01-29T09:37:51.020Z,6.34
2023-01-29T09:40:45.793Z,6.39
2023-01-29T09:43:20.516Z,6.67
2023-01-29T09:45:57.385Z,6.79
2023-01-29T09:48:28.886Z,6.88
2023-01-29T09:50:58.715Z,6.87
2023-01-29T09:53:30.685Z,7.00
2023-01-29T09:56:04.408Z,7.10
2023-01-29T09:58:36.167Z,7.10
2023-01-29T10:01:14.143Z,7.10
2023-01-29T10:04:08.033Z,7.04
2023-01-29T10:06:47.239Z,7.20
2023-01-29T10:09:42.218Z,7.36
2023-01-29T10:12:52.648Z,7.41
2023-01-29T10:15:45.505Z,7.67
2023-01-29T10:18:48.160Z,7.78
2023-01-29T10:21:48.885Z,7.77
2023-01-29T10:24:33.025Z,7.89
2023-01-29T10:27:01.993Z,7.94
2023-01-29T10:29:31.617Z,7.97
2023-01-29T10:32:05.200Z,7.86
2023-01-29T10:34:46.937Z,7.86
2023-01-29T10:37:21.690Z,7.97
2023-01-29T10:39:48.801Z,8.12
2023-01-29T10:42:21.293Z,8.23
2023-01-29T10:45:07.743Z,8.30
2023-01-29T10:47:34.572Z,8.27
2023-01-29T10:50:19.520Z,8.20
2023-01-29T10:53:00.956Z,8.07
2023-01-29T10:55:43.635Z,8.18
2023-01-29T10:59:05.998Z,8.18
2023-01-29T11:01:32.859Z,8.25
2023-01-29T11:04:06.445Z,8.34
2023-01-29T11:06:37.005Z,8.32
2023-01-29T11:12:15.865Z,8.54
2023-01-29T11:14:48.626Z,8.41
2023-01-29T11:17:20.841Z,8.41
2023-01-29T11:19:51.365Z,8.44
2023-01-29T11:22:23.487Z,8.54
2023-01-29T11:25:11.467Z,8.41
2023-01-29T11:27:52.371Z,8.49
2023-01-29T11:30:42.776Z,8.63
2023-01-29T11:33:12.707Z,8.68
2023-01-29T11:35:39.666Z,8.76
2023-01-29T11:38:14.297Z,8.80
2023-01-29T11:40:41.476Z,8.74
2023-01-29T11:43:27.161Z,8.86
2023-01-29T11:45:57.655Z,8.87
2023-01-29T11:48:59.194Z,9.02
2023-01-29T11:51:34.408Z,9.08
2023-01-29T11:54:03.883Z,9.08
2023-01-29T11:56:45.574Z,9.22
2023-01-29T11:59:39.962Z,9.18
2023-01-29T12:02:34.271Z,9.07
2023-01-29T12:05:15.522Z,9.05
2023-01-29T12:07:44.282Z,9.16
2023-01-29T12:10:33.033Z,9.19
2023-01-29T12:13:07.414Z,9.29
2023-01-29T12:15:34.340Z,9.30
2023-01-29T12:18:22.862Z,9.15
2023-01-29T12:20:56.325Z,9.20
2023-01-29T12:23:48.778Z,9.01
2023-01-29T12:26:24.524Z,8.91
2023-01-29T12:29:17.175Z,8.95
2023-01-29T12:32:19.952Z,8.78
2023-01-29T12:34:59.179Z,8.84
2023-01-29T12:37:52.147Z,8.92
2023-01-29T12:40:21.818Z,9.02
2023-01-29T12:42:52.147Z,9.14
2023-01-29T12:45:23.221Z,9.19
2023-01-29T12:47:58.550Z,9.25
2023-01-29T12:50:32.689Z,9.37
2023-01-29T12:53:13.094Z,9.24
2023-01-29T12:55:45.349Z,9.14
2023-01-29T12:58:20.686Z,9.33
2023-01-29T13:00:54.711Z,9.34
2023-01-29T13:03:42.228Z,9.35
2023-01-29T13:06:20.869Z,9.41
2023-01-29T13:08:54.922Z,9.45
2023-01-29T13:11:31.318Z,9.46
2023-01-29T13:14:24.235Z,9.35
2023-01-29T13:16:55.835Z,9.36
2023-01-29T13:19:34.387Z,9.36
2023-01-29T13:22:05.472Z,9.28
2023-01-29T13:24:44.371Z,9.35
2023-01-29T13:27:35.042Z,9.34
2023-01-29T13:30:02.733Z,9.19
2023-01-29T13:32:31.923Z,9.12
2023-01-29T13:35:04.755Z,9.06
2023-01-29T13:37:38.317Z,9.18
2023-01-29T13:40:07.927Z,9.27
2023-01-29T13:42:45.614Z,9.43
2023-01-29T13:45:21.170Z,9.48
2023-01-29T13:47:50.182Z,9.41
2023-01-29T13:50:42.574Z,9.48
2023-01-29T13:53:21.437Z,9.56
2023-01-29T13:55:48.842Z,9.28
2023-01-29T13:58:44.121Z,9.19
2023-01-29T14:01:11.139Z,9.21
2023-01-29T14:03:56.685Z,9.39
2023-01-29T14:06:41.640Z,9.37
2023-01-29T14:09:33.356Z,9.33
2023-01-29T14:12:00.357Z,9.48
2023-01-29T14:15:16.416Z,9.52
2023-01-29T14:18:06.307Z,9.56
2023-01-29T14:20:45.582Z,9.54
2023-01-29T14:23:41.624Z,9.50
2023-01-29T14:26:34.934Z,9.50
2023-01-29T14:29:04.505Z,9.36
2023-01-29T14:31:35.445Z,9.21
2023-01-29T14:34:04.984Z,8.91
2023-01-29T14:36:43.427Z,8.84
2023-01-29T14:39:30.091Z,8.99
2023-01-29T14:41:58.417Z,9.21
2023-01-29T14:44:48.672Z,9.27
2023-01-29T14:47:20.615Z,9.26
2023-01-29T14:49:56.775Z,9.15
2023-01-29T14:52:44.353Z,9.21
2023-01-29T14:55:42.034Z,9.29
2023-01-29T14:58:21.987Z,9.37
2023-01-29T15:00:53.558Z,9.33
2023-01-29T15:03:30.379Z,9.22
2023-01-29T15:05:59.652Z,9.13
2023-01-29T15:08:37.960Z,9.09
2023-01-29T15:11:31.245Z,9.16
2023-01-29T15:14:24.154Z,9.24
2023-01-29T15:16:54.459Z,9.22
2023-01-29T15:19:50.552Z,9.11
2023-01-29T15:22:22.404Z,8.91
2023-01-29T15:25:16.610Z,8.87
2023-01-29T15:27:46.804Z,8.83
2023-01-29T15:30:29.459Z,8.85
2023-01-29T15:32:56.816Z,8.79
2023-01-29T15:35:37.272Z,8.64
2023-01-29T15:38:14.536Z,8.43
2023-01-29T15:40:41.479Z,8.23
2023-01-29T15:43:23.068Z,8.21
2023-01-29T15:45:52.120Z,8.22
2023-01-29T15:48:23.107Z,8.17
2023-01-29T15:50:51.244Z,8.08
2023-01-29T15:53:21.586Z,8.02
2023-01-29T15:55:48.973Z,7.98
2023-01-29T15:58:22.957Z,7.92
2023-01-29T16:00:55.673Z,7.91
2023-01-29T16:03:24.806Z,7.88
2023-01-29T16:05:52.748Z,7.85
2023-01-29T16:08:22.053Z,7.80
2023-01-29T16:10:54.351Z,7.73
2023-01-29T16:13:24.492Z,7.71
2023-01-29T16:16:01.884Z,7.63
2023-01-29T16:18:35.361Z,7.59
2023-01-29T16:21:14.589Z,7.53
2023-01-29T16:23:48.725Z,7.47
2023-01-29T16:26:19.930Z,7.41
2023-01-29T16:28:47.639Z,7.34
2023-01-29T16:31:26.255Z,7.23
2023-01-29T16:33:53.879Z,7.14
2023-01-29T16:36:23.847Z,7.10
2023-01-29T16:38:54.795Z,7.00
2023-01-29T16:41:21.609Z,6.90
2023-01-29T16:43:58.970Z,6.81
2023-01-29T16:46:37.681Z,6.77
2023-01-29T16:49:25.995Z,6.74
2023-01-29T16:51:54.770Z,6.67
2023-01-29T16:54:24.872Z,6.64
2023-01-29T16:57:00.242Z,6.60
2023-01-29T16:59:35.198Z,6.57
2023-01-29T17:02:03.843Z,6.51
2023-01-29T17:04:30.829Z,6.41
2023-01-29T17:07:01.419Z,6.26
2023-01-29T17:09:35.234Z,6.13
2023-01-29T17:12:06.800Z,6.00
2023-01-29T17:14:34.518Z,5.86
2023-01-29T17:17:37.700Z,5.77
2023-01-29T17:20:16.411Z,5.81
2023-01-29T17:22:44.894Z,5.83
2023-01-29T17:25:15.651Z,5.87
2023-01-29T17:27:51.563Z,5.83
2023-01-29T17:30:22.554Z,5.72
2023-01-29T17:32:49.576Z,5.66
2023-01-29T17:35:20.198Z,5.66
2023-01-29T17:37:47.370Z,5.56
2023-01-29T17:40:33.619Z,5.41
2023-01-29T17:43:00.667Z,5.35
2023-01-29T17:45:27.864Z,5.23
2023-01-29T17:47:54.826Z,5.25
2023-01-29T17:50:26.506Z,5.30
2023-01-29T17:52:54.122Z,5.37
2023-01-29T17:55:21.103Z,5.38
2023-01-29T17:57:48.514Z,5.37
2023-01-29T18:00:20.101Z,5.33
2023-01-29T18:02:47.540Z,5.17
2023-01-29T18:05:15.838Z,5.14
2023-01-29T18:07:45.238Z,5.16
2023-01-29T18:10:16.457Z,5.18
2023-01-29T18:12:43.606Z,5.14
2023-01-29T18:15:11.537Z,5.03
2023-01-29T18:17:38.990Z,4.97
2023-01-29T18:20:32.591Z,4.87
2023-01-29T18:23:04.168Z,4.81
2023-01-29T18:25:31.585Z,4.75
2023-01-29T18:27:58.455Z,4.64
2023-01-29T18:30:27.805Z,4.73
2023-01-29T18:32:54.760Z,4.80
2023-01-29T18:35:22.433Z,4.80
2023-01-29T18:37:49.653Z,4.79
2023-01-29T18:40:17.491Z,4.69
2023-01-29T18:42:45.399Z,4.62
2023-01-29T18:45:13.664Z,4.63
2023-01-29T18:47:41.210Z,4.59
2023-01-29T18:50:08.733Z,4.51
2023-01-29T18:52:35.595Z,4.41
2023-01-29T18:55:02.571Z,4.38
2023-01-29T18:58:25.192Z,4.43
2023-01-29T19:00:16.976Z,4.39
2023-01-29T19:02:45.458Z,4.45
2023-01-29T19:05:12.477Z,4.33
2023-01-29T19:07:39.299Z,4.31
2023-01-29T19:10:09.306Z,4.36
2023-01-29T19:12:38.238Z,4.41
2023-01-29T19:15:05.646Z,4.42
2023-01-29T19:17:33.231Z,4.48
2023-01-29T19:20:04.875Z,4.30
2023-01-29T19:22:32.316Z,4.24
2023-01-29T19:24:59.226Z,4.18
2023-01-29T19:27:30.410Z,4.05
2023-01-29T19:29:58.264Z,3.96
2023-01-29T19:32:29.066Z,3.99
2023-01-29T19:34:58.025Z,4.11
2023-01-29T19:37:25.645Z,4.17
2023-01-29T19:39:53.900Z,4.12
2023-01-29T19:42:21.107Z,4.11
2023-01-29T19:44:48.557Z,4.08
2023-01-29T19:47:15.767Z,4.13
2023-01-29T19:49:42.842Z,3.97
2023-01-29T19:52:15.052Z,3.86
2023-01-29T19:54:51.299Z,3.85
2023-01-29T19:57:18.538Z,3.83
2023-01-29T19:59:47.239Z,3.80
2023-01-29T20:02:14.644Z,3.79
2023-01-29T20:04:41.860Z,3.71
2023-01-29T20:07:09.655Z,3.66
2023-01-29T20:09:36.920Z,3.65
2023-01-29T20:12:04.215Z,3.79
2023-01-29T20:14:31.492Z,3.84
2023-01-29T20:16:58.604Z,3.76
2023-01-29T20:19:25.616Z,3.79
2023-01-29T20:21:52.946Z,3.74
2023-01-29T20:24:20.109Z,3.61
2023-01-29T20:26:47.415Z,3.47
2023-01-29T20:29:15.462Z,3.38
2023-01-29T20:31:42.657Z,3.39
2023-01-29T20:34:10.009Z,3.36
2023-01-29T20:36:37.480Z,3.36
2023-01-29T20:39:04.877Z,3.34
2023-01-29T20:41:32.056Z,3.37
2023-01-29T20:43:59.458Z,3.40
2023-01-29T20:46:27.420Z,3.38
2023-01-29T20:48:55.882Z,3.28
2023-01-29T20:51:23.561Z,3.24
2023-01-29T20:53:50.721Z,3.26
2023-01-29T20:56:18.609Z,3.30
2023-01-29T20:58:59.314Z,3.31
2023-01-29T21:01:26.576Z,3.33
2023-01-29T21:03:53.853Z,3.34
2023-01-29T21:06:21.037Z,3.35
2023-01-29T21:08:48.451Z,3.39
2023-01-29T21:11:15.802Z,3.28
2023-01-29T21:13:44.174Z,3.29
2023-01-29T21:16:11.632Z,3.16
2023-01-29T21:18:38.960Z,3.12
2023-01-29T21:21:06.292Z,3.19
2023-01-29T21:23:33.702Z,3.13
2023-01-29T21:26:05.372Z,3.15
2023-01-29T21:28:32.875Z,3.00
2023-01-29T21:31:10.722Z,3.01
2023-01-29T21:33:38.092Z,2.93
2023-01-29T21:36:05.676Z,2.95
2023-01-29T21:38:33.190Z,2.93
2023-01-29T21:41:02.682Z,2.97
2023-01-29T21:43:29.881Z,3.04
2023-01-29T21:45:58.243Z,3.01
2023-01-29T21:48:25.872Z,2.97
2023-01-29T21:50:53.474Z,3.04
2023-01-29T21:53:20.679Z,3.07
2023-01-29T21:55:47.941Z,3.10
2023-01-29T21:58:14.914Z,3.06
2023-01-29T22:00:41.794Z,3.12
2023-01-29T22:03:08.904Z,2.98
2023-01-29T22:05:35.906Z,2.97
2023-01-29T22:08:04.848Z,3.10
2023-01-29T22:10:34.075Z,3.06
2023-01-29T22:13:02.063Z,3.13
2023-01-29T22:15:29.033Z,3.20
2023-01-29T22:17:55.971Z,3.20
2023-01-29T22:20:29.839Z,3.23
2023-01-29T22:22:59.009Z,3.31
2023-01-29T22:25:26.105Z,3.32
2023-01-29T22:27:53.220Z,3.27
2023-01-29T22:30:21.740Z,3.23
2023-01-29T22:32:48.638Z,3.10
2023-01-29T22:35:15.593Z,2.85
2023-01-29T22:37:42.573Z,2.85
2023-01-29T22:40:09.791Z,2.96
2023-01-29T22:42:36.810Z,2.98
2023-01-29T22:45:03.757Z,2.90
2023-01-29T22:47:33.158Z,2.90
2023-01-29T22:49:59.958Z,2.86
2023-01-29T22:52:27.996Z,2.73
2023-01-29T22:54:54.910Z,2.68
2023-01-29T22:57:21.687Z,2.57
2023-01-29T22:59:48.569Z,2.49
2023-01-29T23:02:15.366Z,2.36
2023-01-29T23:04:42.523Z,2.38
2023-01-29T23:07:09.509Z,2.51
2023-01-29T23:09:36.743Z,2.63
2023-01-29T23:12:03.779Z,2.61
2023-01-29T23:14:30.675Z,2.55
2023-01-29T23:16:57.527Z,2.52
2023-01-29T23:19:24.508Z,2.53
2023-01-29T23:21:51.325Z,2.42
2023-01-29T23:24:18.461Z,2.43
2023-01-29T23:27:03.514Z,2.53
2023-01-29T23:29:30.312Z,2.57
2023-01-29T23:31:57.070Z,2.56
2023-01-29T23:34:23.992Z,2.53
2023-01-29T23:36:50.871Z,2.49
2023-01-29T23:39:18.429Z,2.50
2023-01-29T23:41:45.190Z,2.56
2023-01-29T23:44:12.083Z,2.67
2023-01-29T23:46:38.807Z,2.78
2023-01-29T23:49:06.057Z,2.70
2023-01-29T23:51:33.026Z,2.65
2023-01-29T23:53:59.789Z,2.66
2023-01-29T23:56:26.613Z,2.62
2023-01-29T23:58:57.647Z,2.42
